Time;durP1;ratioP1;P1;durP2;ratioP2;P2;SDS_P1;SDS_P2;PMS_P1;PMS_P2;Temp;Humidity;BMP_temperature;BMP_pressure;BME280_temperature;BME280_humidity;BME280_pressure;Samples;Min_cycle;Max_cycle;Signal;HPM_P1;HPM_P2
2022/12/03 00:01:42;;;;;;;;;56.75;42.75;;;;;5.44;73.29;101440.00;6016037;23;46192;-84
2022/12/03 00:31:03;;;;;;;;;;;;;;;;;;;;;
2022/12/03 00:33:31;;;;;;;;;43.75;39.00;;;;;5.67;72.58;101452.84;5655091;24;72786;-85
2022/12/03 00:36:01;;;;;;;;;56.25;44.50;;;;;5.66;72.32;101449.31;5830072;24;45181;-84
2022/12/03 00:38:50;;;;;;;;;48.25;37.25;;;;;5.73;72.76;101448.66;6168747;23;45187;-85
2022/12/03 00:41:29;;;;;;;;;52.00;43.50;;;;;5.72;72.65;101461.66;6160996;23;46724;-85
2022/12/03 00:43:56;;;;;;;;;59.75;41.75;;;;;5.60;72.24;101437.81;6161671;23;45372;-85
2022/12/03 00:46:30;;;;;;;;;52.00;40.00;;;;;5.59;71.99;101436.06;6187008;23;45357;-86
2022/12/03 00:49:16;;;;;;;;;42.25;37.25;;;;;5.57;72.31;101424.69;6161533;23;45455;-84
2022/12/03 00:51:52;;;;;;;;;55.75;42.50;;;;;5.52;72.03;101428.03;6184854;23;47800;-85
2022/12/03 00:54:18;;;;;;;;;45.75;39.00;;;;;5.53;72.22;101428.91;6160290;23;45230;-85
2022/12/03 00:56:49;;;;;;;;;44.00;37.25;;;;;5.55;72.55;101423.75;6160077;23;45151;-85
2022/12/03 00:59:22;;;;;;;;;51.25;40.50;;;;;5.48;72.42;101415.75;6185426;23;45433;-85
2022/12/03 01:01:48;;;;;;;;;57.75;42.75;;;;;5.55;72.28;101435.06;6185540;23;47851;-85
2022/12/03 01:04:14;;;;;;;;;52.75;42.00;;;;;5.63;72.22;101437.91;6188021;23;45375;-86
2022/12/03 01:06:39;;;;;;;;;51.00;39.00;;;;;5.52;72.43;101424.56;6188310;23;45248;-85
2022/12/03 01:09:26;;;;;;;;;53.50;41.00;;;;;5.51;72.19;101409.75;6161754;23;45546;-85
2022/12/03 01:11:56;;;;;;;;;51.25;37.25;;;;;5.63;72.12;101430.06;6161436;23;46875;-85
2022/12/03 01:14:24;;;;;;;;;49.50;40.75;;;;;5.70;72.32;101437.25;6189288;23;45147;-85
2022/12/03 01:16:55;;;;;;;;;50.00;40.00;;;;;5.56;72.15;101420.28;6188004;23;45344;-83
2022/12/03 01:19:27;;;;;;;;;51.75;42.25;;;;;5.57;72.15;101430.78;6161773;23;45676;-85
2022/12/03 01:22:05;;;;;;;;;;;;;;;;;;;;;
2022/12/03 01:24:42;;;;;;;;;55.00;41.50;;;;;5.62;72.01;101441.38;6187172;23;72988;-84
2022/12/03 01:27:15;;;;;;;;;49.75;40.25;;;;;5.50;71.80;101407.94;6161650;23;45312;-84
2022/12/03 01:29:44;;;;;;;;;55.75;41.25;;;;;5.57;72.05;101424.69;6161653;23;45317;-85
2022/12/03 01:32:18;;;;;;;;;53.25;41.75;;;;;5.50;71.89;101414.06;6162178;23;46727;-85
2022/12/03 01:38:11;;;;;;;;;44.00;36.50;;;;;5.69;72.10;101440.69;6182268;23;45431;-85
2022/12/03 01:40:53;;;;;;;;;49.00;38.75;;;;;5.62;71.95;101429.19;6188347;23;45251;-85
2022/12/03 01:43:24;;;;;;;;;56.25;43.75;;;;;5.62;71.99;101437.03;6187130;23;46454;-84
2022/12/03 01:46:11;;;;;;;;;53.50;42.50;;;;;5.48;71.60;101409.63;6162603;23;45258;-85
2022/12/03 01:48:42;;;;;;;;;52.75;40.00;;;;;5.49;71.71;101420.13;6161206;23;45408;-85
2022/12/03 01:51:17;;;;;;;;;54.25;44.25;;;;;5.63;71.94;101433.56;6163625;23;45437;-86
2022/12/03 01:53:46;;;;;;;;;53.25;41.25;;;;;5.54;71.57;101422.88;6187857;23;45368;-85
2022/12/03 01:56:19;;;;;;;;;50.50;39.75;;;;;5.47;71.77;101427.03;6159320;23;45908;-85
2022/12/03 01:58:53;;;;;;;;;57.25;41.00;;;;;5.54;71.78;101428.09;6185080;23;45195;-85
2022/12/03 02:01:23;;;;;;;;;49.50;40.25;;;;;5.61;71.93;101445.69;6185074;23;45188;-85
2022/12/03 02:03:49;;;;;;;;;53.50;43.50;;;;;5.68;71.74;101465.03;6160018;23;48148;-86
2022/12/03 02:06:19;;;;;;;;;50.75;40.50;;;;;5.49;71.67;101417.50;6184616;23;45358;-85
2022/12/03 02:08:46;;;;;;;;;48.25;39.00;;;;;5.48;71.45;101422.69;6160387;23;45190;-85
2022/12/03 02:11:37;;;;;;;;;47.25;37.75;;;;;5.64;71.44;101451.03;6187525;23;45203;-85
2022/12/03 02:14:24;;;;;;;;;58.75;41.75;;;;;5.46;71.51;101422.66;6160035;23;47214;-85
2022/12/03 02:20:00;;;;;;;;;59.00;44.00;;;;;5.53;71.14;101431.53;6187836;23;44808;-84
2022/12/03 02:23:01;;;;;;;;;55.75;41.50;;;;;5.63;71.08;101446.63;6161951;23;45392;-85
2022/12/03 02:25:33;;;;;;;;;55.00;42.75;;;;;5.47;71.34;101426.16;6187683;23;47470;-85
2022/12/03 02:28:00;;;;;;;;;46.75;38.00;;;;;5.46;71.38;101419.16;6161400;23;45243;-84
2022/12/03 02:30:33;;;;;;;;;50.50;42.00;;;;;5.49;71.43;101420.13;6186495;23;45382;-86
2022/12/03 02:33:02;;;;;;;;;54.75;40.50;;;;;5.51;71.15;101409.75;6185351;23;45294;-85
2022/12/03 02:35:40;;;;;;;;;54.00;41.00;;;;;5.59;71.60;101421.28;6160371;23;45535;-85
2022/12/03 02:38:25;;;;;;;;;52.50;40.75;;;;;5.52;71.00;101416.72;6160025;23;45483;-85
2022/12/03 02:40:57;;;;;;;;;42.50;35.00;;;;;5.61;71.38;101427.41;6160647;23;45420;-86
2022/12/03 02:43:28;;;;;;;;;56.25;39.50;;;;;5.55;70.90;101422.03;6187619;23;45392;-85
2022/12/03 02:45:59;;;;;;;;;47.25;40.25;;;;;5.47;71.14;101411.34;6187244;23;46226;-84
2022/12/03 02:48:29;;;;;;;;;47.00;36.00;;;;;5.66;71.10;101435.38;6184849;23;45366;-85
2022/12/03 02:50:59;;;;;;;;;51.00;39.25;;;;;5.57;70.99;101420.34;6184462;23;45287;-84
2022/12/03 02:53:36;;;;;;;;;52.25;42.50;;;;;5.65;70.75;101431.00;6187291;23;45448;-85
2022/12/03 02:56:04;;;;;;;;;51.50;43.50;;;;;5.44;71.02;101398.22;6184713;23;47527;-86
2022/12/03 02:58:32;;;;;;;;;52.50;40.25;;;;;5.49;70.79;101414.03;6160079;23;45270;-86
2022/12/03 03:00:59;;;;;;;;;48.75;41.75;;;;;5.48;70.71;101409.63;6185221;23;45423;-86
2022/12/03 03:03:27;;;;;;;;;52.00;41.25;;;;;5.57;70.66;101433.41;6184571;23;45309;-85
2022/12/03 03:06:00;;;;;;;;;43.50;39.00;;;;;5.35;70.56;101386.66;6159498;23;47255;-85
2022/12/03 03:08:37;;;;;;;;;48.25;37.50;;;;;5.55;70.96;101416.78;6184673;23;45400;-84
2022/12/03 03:11:16;;;;;;;;;;;;;;;;;;;;;
2022/12/03 03:13:52;;;;;;;;;46.25;38.50;;;;;5.37;70.50;101391.06;6186133;23;72827;-85
2022/12/03 03:16:23;;;;;;;;;52.75;42.00;;;;;5.44;70.43;101402.56;6160735;23;45386;-84
2022/12/03 03:18:49;;;;;;;;;51.75;43.25;;;;;5.50;70.84;101402.72;6160064;23;45215;-85
2022/12/03 03:21:15;;;;;;;;;53.00;40.25;;;;;5.50;70.88;101411.44;6160474;23;45175;-85
2022/12/03 03:23:52;;;;;;;;;52.25;39.25;;;;;5.35;70.88;101384.03;6160605;23;45123;-85
2022/12/03 03:26:30;;;;;;;;;48.75;37.75;;;;;5.41;70.78;101403.38;6185710;23;45513;-85
2022/12/03 03:29:00;;;;;;;;;44.25;36.00;;;;;5.53;70.72;101419.38;6161720;23;45419;-85
2022/12/03 03:31:30;;;;;;;;;41.75;34.00;;;;;5.39;70.88;101404.16;6162327;23;45203;-85
2022/12/03 03:33:56;;;;;;;;;54.00;40.75;;;;;5.42;70.77;101406.84;6161039;23;45218;-84
2022/12/03 03:36:37;;;;;;;;;45.75;37.00;;;;;5.36;71.01;101399.75;6161496;23;46779;-85
2022/12/03 03:39:14;;;;;;;;;55.25;40.75;;;;;5.38;70.81;101399.78;6186392;23;45325;-85
2022/12/03 03:41:56;;;;;;;;;44.75;39.50;;;;;5.47;70.78;101419.19;6185651;23;45400;-86
2022/12/03 03:44:42;;;;;;;;;42.50;37.00;;;;;5.55;70.82;101427.25;6185603;23;45196;-85
2022/12/03 03:47:22;;;;;;;;;53.00;39.75;;;;;5.39;70.72;101398.94;6160130;23;46951;-85
2022/12/03 03:49:49;;;;;;;;;53.50;40.00;;;;;5.46;70.57;101403.50;6187047;23;45218;-85
2022/12/03 03:52:17;;;;;;;;;48.50;38.25;;;;;5.32;70.64;101390.06;6185692;23;45239;-85
2022/12/03 03:54:49;;;;;;;;;50.75;40.00;;;;;5.53;70.43;101419.38;6185083;23;45586;-85
2022/12/03 03:57:33;;;;;;;;;47.75;37.75;;;;;5.37;70.39;101378.00;6159062;23;45319;-85
2022/12/03 04:00:08;;;;;;;;;50.75;38.00;;;;;5.53;70.28;101415.84;6187070;23;45171;-85
2022/12/03 04:02:40;;;;;;;;;46.00;40.00;;;;;5.52;70.42;101414.97;6159816;23;45103;-85
2022/12/03 04:05:07;;;;;;;;;49.75;40.00;;;;;5.50;70.46;101411.44;6160394;23;45300;-85
2022/12/03 04:07:32;;;;;;;;;42.75;36.50;;;;;5.51;70.50;101413.22;6187949;23;46197;-86
2022/12/03 04:09:57;;;;;;;;;46.00;38.75;;;;;5.43;69.96;101408.66;6160927;23;45153;-85
2022/12/03 04:15:07;;;;;;;;;49.25;40.50;;;;;5.38;70.41;101403.28;6188071;23;45368;-85
2022/12/03 04:17:33;;;;;;;;;41.00;35.25;;;;;5.56;70.40;101421.19;6160976;23;47253;-84
2022/12/03 04:19:59;;;;;;;;;44.25;36.75;;;;;5.38;69.88;101386.75;6185688;23;45238;-85
2022/12/03 04:22:42;;;;;;;;;37.75;31.50;;;;;5.43;69.97;101400.81;6186494;23;45328;-85
2022/12/03 04:35:41;;;;;;;;;43.00;36.75;;;;;5.48;69.78;101392.25;6188956;23;45412;-85
2022/12/03 04:36:51;;;;;;;;;;;;;;;;;;;;;
2022/12/03 04:39:28;;;;;;;;;45.00;37.25;;;;;5.46;69.72;101383.50;6188714;23;73709;-85
2022/12/03 04:42:13;;;;;;;;;;;;;;;;;;;;;
2022/12/03 04:44:45;;;;;;;;;43.75;36.25;;;;;5.48;69.29;101399.19;6187331;23;68865;-85
2022/12/03 04:47:26;;;;;;;;;39.50;31.75;;;;;5.43;69.55;101396.47;6186421;23;45480;-85
2022/12/03 04:49:56;;;;;;;;;48.25;39.50;;;;;5.37;69.58;101364.94;6160162;23;45393;-84
2022/12/03 04:52:43;;;;;;;;;45.25;38.25;;;;;5.44;69.43;101379.94;6185634;23;45202;-85
2022/12/03 04:55:30;;;;;;;;;50.00;40.00;;;;;5.37;69.10;101370.16;6187882;23;45400;-86
2022/12/03 04:58:02;;;;;;;;;44.25;37.75;;;;;5.43;69.42;101367.75;6184387;23;45246;-86
2022/12/03 05:00:46;;;;;;;;;53.75;38.25;;;;;5.34;69.17;101354.41;6185557;23;45491;-85
2022/12/03 05:03:19;;;;;;;;;43.00;34.25;;;;;5.41;69.54;101372.03;6160646;23;45221;-85
2022/12/03 05:05:51;;;;;;;;;49.75;39.75;;;;;5.38;68.99;101361.50;6160655;23;45214;-84
2022/12/03 05:08:32;;;;;;;;;34.00;31.50;;;;;5.37;69.06;101369.28;6161081;23;45271;-86
2022/12/03 05:11:09;;;;;;;;;40.75;31.25;;;;;5.38;68.87;101369.34;6160450;23;46735;-85
2022/12/03 05:13:37;;;;;;;;;40.00;35.00;;;;;5.48;69.13;101376.59;6160172;23;45326;-86
2022/12/03 05:16:03;;;;;;;;;46.50;38.50;;;;;5.51;68.98;101376.66;6160170;23;45266;-85
2022/12/03 05:18:34;;;;;;;;;37.75;31.75;;;;;5.48;68.91;101371.38;6160836;23;45513;-85
2022/12/03 05:21:07;;;;;;;;;44.75;39.50;;;;;5.43;68.79;101356.41;6160269;23;45393;-84
2022/12/03 05:23:42;;;;;;;;;45.75;37.25;;;;;5.53;68.80;101376.69;6161055;23;45582;-86
2022/12/03 05:26:32;;;;;;;;;39.25;34.50;;;;;5.54;68.93;101388.94;6161499;23;45307;-85
2022/12/03 05:29:25;;;;;;;;;;;;;;;;;;;;;
2022/12/03 05:31:56;;;;;;;;;41.25;36.25;;;;;5.43;68.21;101361.66;6185768;23;74830;-83
2022/12/03 05:34:22;;;;;;;;;39.50;34.50;;;;;5.38;68.52;101366.72;6185590;23;45195;-84
2022/12/03 05:37:07;;;;;;;;;39.25;32.00;;;;;5.34;68.45;101362.25;6161423;23;45838;-85
2022/12/03 05:39:36;;;;;;;;;46.75;38.25;;;;;5.51;68.57;101392.34;6161191;23;45255;-83
2022/12/03 05:45:01;;;;;;;;;43.75;34.50;;;;;5.53;68.87;101400.19;6188804;23;45287;-86
2022/12/03 05:50:27;;;;;;;;;32.75;27.75;;;;;5.51;68.52;101388.84;6172019;23;45371;-85
2022/12/03 05:53:07;;;;;;;;;44.50;34.25;;;;;5.46;68.76;101366.94;6184888;23;46864;-85
2022/12/03 05:55:48;;;;;;;;;;;;;;;;;;;;;
2022/12/03 05:58:42;;;;;;;;;46.75;35.50;;;;;5.34;68.44;101356.16;6185173;23;68808;-85
2022/12/03 06:01:13;;;;;;;;;33.25;29.75;;;;;5.37;68.00;101369.28;6185706;23;45463;-84
2022/12/03 06:03:44;;;;;;;;;34.00;29.75;;;;;5.46;68.66;101374.78;6160706;23;47971;-84
2022/12/03 06:06:15;;;;;;;;;38.00;31.75;;;;;5.50;68.62;101389.66;6159927;23;45383;-86
2022/12/03 06:08:54;;;;;;;;;38.25;31.75;;;;;5.33;68.27;101355.28;6160152;23;45406;-85
2022/12/03 06:11:35;;;;;;;;;31.75;28.50;;;;;5.39;68.73;101367.59;6160164;23;45218;-85
2022/12/03 06:14:12;;;;;;;;;42.00;33.75;;;;;5.43;68.46;101370.34;6185329;23;45376;-84
2022/12/03 06:16:53;;;;;;;;;35.50;33.00;;;;;5.33;68.36;101351.78;6160271;23;45243;-85
2022/12/03 06:19:22;;;;;;;;;40.25;32.00;;;;;5.46;68.31;101383.50;6160311;23;45266;-85
2022/12/03 06:21:47;;;;;;;;;36.00;32.50;;;;;5.37;68.33;101359.72;6160693;23;45472;-85
2022/12/03 06:24:13;;;;;;;;;33.50;30.25;;;;;5.52;68.03;101394.09;6159894;23;47265;-85
2022/12/03 06:26:38;;;;;;;;;44.75;36.00;;;;;5.42;67.99;101359.84;6186639;23;45190;-85
2022/12/03 06:29:03;;;;;;;;;34.50;33.00;;;;;5.48;68.19;101360.00;6187687;23;45133;-85
2022/12/03 06:31:29;;;;;;;;;41.25;30.25;;;;;5.43;67.98;101357.31;6187182;23;45483;-84
2022/12/03 06:33:54;;;;;;;;;44.00;35.75;;;;;5.51;68.18;101371.44;6187082;23;45241;-84
2022/12/03 06:36:20;;;;;;;;;37.25;30.25;;;;;5.44;68.65;101361.66;6186690;23;45454;-84
2022/12/03 06:38:45;;;;;;;;;37.00;33.50;;;;;5.38;68.30;101355.41;6189015;23;45092;-84
2022/12/03 06:41:10;;;;;;;;;39.50;37.00;;;;;5.37;68.13;101353.63;6161387;23;45516;-84
2022/12/03 06:43:36;;;;;;;;;36.25;31.50;;;;;5.43;68.52;101362.53;6188058;23;45562;-85
2022/12/03 06:46:01;;;;;;;;;39.50;30.50;;;;;5.41;68.06;101369.41;6187344;23;45090;-84
2022/12/03 06:48:27;;;;;;;;;34.00;27.75;;;;;5.53;68.20;101380.22;6187694;23;45235;-85
2022/12/03 06:50:55;;;;;;;;;31.75;31.00;;;;;5.53;67.99;101376.69;6159767;23;45729;-84
2022/12/03 06:53:26;;;;;;;;;44.50;37.25;;;;;5.47;68.15;101366.97;6159897;23;47298;-85
2022/12/03 06:56:05;;;;;;;;;46.25;37.75;;;;;5.43;68.01;101353.81;6159841;23;45190;-86
2022/12/03 06:59:13;;;;;;;;;41.75;36.50;;;;;5.51;67.94;101371.44;6186872;23;45358;-86
2022/12/03 07:02:09;;;;;;;;;31.75;27.25;;;;;5.39;67.86;101362.38;6159060;23;45138;-86
2022/12/03 07:04:50;;;;;;;;;31.25;30.00;;;;;5.50;67.78;101380.09;6093443;23;45478;-87
2022/12/03 07:07:26;;;;;;;;;45.25;36.25;;;;;5.30;67.88;101358.69;6070871;23;45358;-88
2022/12/03 07:10:04;;;;;;;;;;;;;;;;;;;;;
2022/12/03 07:12:42;;;;;;;;;;;;;;;;;;;;;
2022/12/03 07:15:22;;;;;;;;;40.50;35.25;;;;;5.50;68.08;101387.06;6187194;23;76058;-90
2022/12/03 07:18:20;;;;;;;;;;;;;;;;;;;;;
2022/12/03 07:20:35;;;;;;;;;31.25;27.50;;;;;5.39;68.35;101371.09;6179242;23;45155;-88
2022/12/03 07:23:01;;;;;;;;;37.50;32.50;;;;;5.45;67.93;101383.44;6160203;23;45360;-88
2022/12/03 07:25:29;;;;;;;;;31.00;26.25;;;;;5.50;67.83;101389.66;6160368;23;47233;-86
2022/12/03 07:27:54;;;;;;;;;35.50;26.75;;;;;5.35;67.93;101363.16;6186972;23;45340;-85
2022/12/03 07:30:22;;;;;;;;;42.25;34.25;;;;;5.46;67.78;101382.63;6159395;23;45256;-87
2022/12/03 07:32:48;;;;;;;;;36.00;28.25;;;;;5.54;67.73;101399.38;6188200;23;45336;-90
2022/12/03 07:35:38;;;;;;;;;34.00;31.25;;;;;5.47;67.87;101379.16;6166988;23;46853;-89
2022/12/03 07:38:52;;;;;;;;;;;;;;;;;;;;;
2022/12/03 07:41:21;;;;;;;;;29.50;26.25;;;;;5.47;67.39;101384.38;6190104;23;68714;-90
2022/12/03 07:44:07;;;;;;;;;41.25;34.00;;;;;5.49;67.87;101393.13;6168672;23;45254;-89
2022/12/03 07:46:40;;;;;;;;;35.50;30.50;;;;;5.33;67.57;101370.06;6169017;23;45681;-86
2022/12/03 07:49:25;;;;;;;;;;;;;;;;;;;;;
2022/12/03 07:53:30;;;;;;;;;;;;;;;;;;;;;
2022/12/03 07:55:26;;;;;;;;;35.50;31.25;;;;;5.51;68.10;101407.13;6071267;23;45194;-93
2022/12/03 08:02:13;;;;;;;;;;;;;;;;;;;;;
2022/12/03 08:04:48;;;;;;;;;37.25;31.25;;;;;5.47;67.84;101390.47;5910155;23;69187;-93
2022/12/03 08:08:01;;;;;;;;;;;;;;;;;;;;;
2022/12/03 08:14:30;;;;;;;;;;;;;;;;;;;;;
2022/12/03 08:16:58;;;;;;;;;39.00;33.50;;;;;5.64;67.93;101410.94;6171285;23;67003;-89
2022/12/03 08:19:34;;;;;;;;;35.50;32.50;;;;;5.55;67.63;101395.91;6166158;23;45436;-89
2022/12/03 08:22:02;;;;;;;;;38.75;31.25;;;;;5.67;67.62;101411.03;6165346;23;45412;-88
2022/12/03 08:24:31;;;;;;;;;36.75;30.75;;;;;5.56;67.59;101382.03;6162576;23;45441;-82
2022/12/03 08:26:57;;;;;;;;;39.75;32.25;;;;;5.63;67.44;101388.28;6184719;23;45143;-81
2022/12/03 08:29:23;;;;;;;;;37.50;33.00;;;;;5.65;67.73;101387.47;6184751;23;45366;-81
2022/12/03 08:31:55;;;;;;;;;34.00;32.25;;;;;5.55;67.22;101369.78;6160624;23;45597;-81
2022/12/03 08:34:28;;;;;;;;;28.00;22.00;;;;;5.61;67.37;101380.38;6160621;23;45387;-82
2022/12/03 08:37:12;;;;;;;;;33.00;27.00;;;;;5.66;66.88;101391.84;6160018;23;45230;-82
2022/12/03 08:39:48;;;;;;;;;36.00;31.75;;;;;5.72;67.32;101404.19;6161919;23;45383;-82
2022/12/03 08:42:41;;;;;;;;;31.25;27.75;;;;;5.63;66.93;101377.84;6164263;23;46824;-82
2022/12/03 08:45:29;;;;;;;;;37.25;32.25;;;;;5.77;67.07;101397.34;6163623;23;45490;-81
2022/12/03 08:48:04;;;;;;;;;34.25;31.25;;;;;5.72;67.07;101392.03;6163213;23;45235;-80
2022/12/03 08:50:40;;;;;;;;;37.50;30.00;;;;;5.63;66.91;101377.84;6188626;23;45579;-81
2022/12/03 08:53:34;;;;;;;;;32.75;30.00;;;;;5.69;67.23;101388.44;6161540;23;47027;-82
2022/12/03 08:56:29;;;;;;;;;32.25;27.75;;;;;5.82;67.18;101397.47;6162144;23;45185;-82
2022/12/03 08:59:19;;;;;;;;;34.25;29.00;;;;;5.84;67.23;101395.81;6190720;23;45106;-82
2022/12/03 09:01:49;;;;;;;;;42.00;33.50;;;;;5.75;67.35;101370.34;6163705;23;45725;-82
2022/12/03 09:04:23;;;;;;;;;33.00;24.50;;;;;5.93;67.50;101391.75;6162063;23;46876;-83
2022/12/03 09:06:51;;;;;;;;;37.50;35.00;;;;;5.95;67.45;101384.81;6159303;23;45244;-82
2022/12/03 09:09:25;;;;;;;;;39.25;31.25;;;;;5.82;66.92;101361.78;6160252;23;45201;-83
2022/12/03 09:12:00;;;;;;;;;34.75;27.50;;;;;5.86;66.92;101375.84;6187084;23;45361;-84
2022/12/03 09:15:03;;;;;;;;;;;;;;;;;;;;;
2022/12/03 09:27:21;;;;;;;;;;;;;;;;;;;;;
2022/12/03 09:30:22;;;;;;;;;29.25;26.75;;;;;5.89;66.90;101366.34;6222494;22;73124;-91
2022/12/03 09:32:51;;;;;;;;;29.25;26.50;;;;;5.90;67.01;101378.53;6191253;22;45247;-86
2022/12/03 09:35:28;;;;;;;;;29.25;28.25;;;;;5.87;66.87;101368.00;6191305;22;45190;-86
2022/12/03 09:37:59;;;;;;;;;23.00;21.25;;;;;5.84;66.81;101357.50;6189972;22;46633;-82
2022/12/03 09:40:37;;;;;;;;;26.50;24.50;;;;;5.87;66.54;101365.41;6191153;22;45399;-84
2022/12/03 09:43:03;;;;;;;;;34.50;29.00;;;;;5.89;66.61;101368.94;6219491;22;45396;-81
2022/12/03 09:45:31;;;;;;;;;24.25;21.25;;;;;5.95;67.04;101378.69;6193539;22;45554;-83
2022/12/03 09:48:01;;;;;;;;;30.00;23.75;;;;;5.94;66.68;101376.94;6189732;22;46696;-82
2022/12/03 09:57:06;;;;;;;;;27.50;22.25;;;;;5.95;66.47;101383.94;6123711;23;45300;-85
2022/12/03 10:07:20;;;;;;;;;;;;;;;;;;;;;
2022/12/03 10:13:33;;;;;;;;;26.00;22.00;;;;;6.05;66.16;101362.41;6025034;23;45480;-83
2022/12/03 10:40:56;;;;;;;;;;;;;;;;;;;;;
2022/12/03 11:12:23;;;;;;;;;;;;;;;;;;;;;
2022/12/03 11:19:06;;;;;;;;;;;;;;;;;;;;;
2022/12/03 13:06:38;;;;;;;;;30.00;24.50;;;;;6.40;64.74;101218.53;6153843;22;47037;-83
2022/12/03 13:38:54;;;;;;;;;27.25;23.50;;;;;6.45;64.15;101208.19;6215446;22;44953;-83
2022/12/03 13:53:01;;;;;;;;;;;;;;;;;;;;;
2022/12/03 14:47:27;;;;;;;;;;;;;;;;;;;;;
2022/12/03 14:50:03;;;;;;;;;;;;;;;;;;;;;
2022/12/03 14:59:14;;;;;;;;;27.00;25.75;;;;;6.19;64.42;101201.53;6218946;22;45433;-82
2022/12/03 15:01:57;;;;;;;;;22.50;22.25;;;;;6.03;64.50;101183.75;6275405;22;45599;-83
2022/12/03 15:05:10;;;;;;;;;;;;;;;;;;;;;
2022/12/03 15:08:44;;;;;;;;;;;;;;;;;;;;;
2022/12/03 15:18:18;;;;;;;;;38.75;33.75;;;;;6.16;64.88;101211.06;6155822;23;45818;-84
2022/12/03 15:22:01;;;;;;;;;;;;;;;;;;;;;
2022/12/03 15:32:05;;;;;;;;;;;;;;;;;;;;;
2022/12/03 15:41:36;;;;;;;;;33.75;29.00;;;;;5.90;64.61;101155.56;6032135;23;45320;-84
2022/12/03 15:44:37;;;;;;;;;;;;;;;;;;;;;
2022/12/03 15:47:20;;;;;;;;;20.00;17.75;;;;;6.07;64.99;101176.88;6161225;22;72187;-81
2022/12/03 15:53:52;;;;;;;;;;;;;;;;;;;;;
2022/12/03 15:57:38;;;;;;;;;;;;;;;;;;;;;
2022/12/03 16:03:43;;;;;;;;;;;;;;;;;;;;;
2022/12/03 16:34:59;;;;;;;;;;;;;;;;;;;;;
2022/12/03 16:37:28;;;;;;;;;28.50;24.75;;;;;5.79;65.80;101162.28;5864522;24;68016;-79
2022/12/03 16:42:59;;;;;;;;;37.50;31.25;;;;;5.67;65.50;101139.41;6262286;22;46781;-79
2022/12/03 17:25:02;;;;;;;;;25.50;23.00;;;;;5.80;65.26;101161.44;6266824;22;45757;-85
2022/12/03 17:27:38;;;;;;;;;31.75;25.50;;;;;5.74;65.16;101170.00;6246794;22;45385;-85
2022/12/03 17:45:03;;;;;;;;;25.50;22.50;;;;;5.55;65.50;101133.88;6030987;23;46123;-86
2022/12/03 18:14:41;;;;;;;;;28.50;26.00;;;;;5.44;65.38;101142.34;6243301;22;45464;-85
2022/12/03 18:32:15;;;;;;;;;;;;;;;;;;;;;
2022/12/03 19:37:02;;;;;;;;;;;;;;;;;;;;;
2022/12/03 19:44:23;;;;;;;;;;;;;;;;;;;;;
2022/12/03 19:57:49;;;;;;;;;28.00;25.25;;;;;5.12;65.82;101117.19;5919336;24;44854;-87
2022/12/03 20:00:20;;;;;;;;;26.75;24.50;;;;;5.22;65.76;101133.13;5809446;24;45544;-82
2022/12/03 20:03:45;;;;;;;;;;;;;;;;;;;;;
2022/12/03 20:06:44;;;;;;;;;39.25;31.00;;;;;5.14;65.60;101124.22;5984863;23;69157;-83
2022/12/03 20:10:21;;;;;;;;;;;;;;;;;;;;;
2022/12/03 20:32:21;;;;;;;;;;;;;;;;;;;;;
2022/12/03 20:35:03;;;;;;;;;34.25;28.25;;;;;5.25;65.84;101129.69;5882123;24;45428;-82
2022/12/03 20:41:55;;;;;;;;;;;;;;;;;;;;;
2022/12/03 20:48:18;;;;;;;;;;;;;;;;;;;;;
2022/12/03 20:54:06;;;;;;;;;;;;;;;;;;;;;
2022/12/03 21:00:17;;;;;;;;;33.25;28.75;;;;;5.03;65.62;101089.16;6289349;22;45583;-82
2022/12/03 21:02:58;;;;;;;;;;;;;;;;;;;;;
2022/12/03 21:05:41;;;;;;;;;;;;;;;;;;;;;
2022/12/03 21:09:02;;;;;;;;;;;;;;;;;;;;;
2022/12/03 21:15:00;;;;;;;;;38.50;32.75;;;;;5.13;65.47;101106.78;6177021;22;45291;-82
2022/12/03 21:17:28;;;;;;;;;35.75;32.75;;;;;5.13;65.99;101095.47;6306083;22;46251;-82
2022/12/03 21:21:35;;;;;;;;;;;;;;;;;;;;;
2022/12/03 21:24:13;;;;;;;;;33.50;29.25;;;;;5.26;65.61;101102.75;6186824;23;45380;-83
2022/12/03 22:29:37;;;;;;;;;;;;;;;;;;;;;
2022/12/03 22:32:26;;;;;;;;;;;;;;;;;;;;;
2022/12/03 22:45:58;;;;;;;;;;;;;;;;;;;;;
2022/12/03 22:54:54;;;;;;;;;31.50;29.00;;;;;5.12;66.23;101055.44;5971773;23;45492;-81
2022/12/03 23:01:28;;;;;;;;;;;;;;;;;;;;;
2022/12/03 23:15:43;;;;;;;;;34.50;28.25;;;;;4.95;66.02;101017.66;5919059;24;45416;-82
2022/12/03 23:19:05;;;;;;;;;;;;;;;;;;;;;
2022/12/03 23:33:04;;;;;;;;;;;;;;;;;;;;;
2022/12/03 23:35:30;;;;;;;;;32.25;29.25;;;;;5.07;66.55;101023.16;6123400;23;74216;-81
2022/12/03 23:38:01;;;;;;;;;30.75;21.75;;;;;4.91;66.26;101003.63;6149871;23;45452;-82
2022/12/03 23:44:31;;;;;;;;;;;;;;;;;;;;;
2022/12/03 23:47:37;;;;;;;;;24.75;23.50;;;;;4.90;66.46;101019.28;6285110;22;74115;-81
